createdAt,value
2023-05-03T00:00:29.879Z,95676.28
2023-05-03T00:03:16.554Z,95682.66
2023-05-03T00:06:15.904Z,95674.00
2023-05-03T00:09:02.555Z,95675.59
2023-05-03T00:11:48.349Z,95676.72
2023-05-03T00:14:34.262Z,95685.59
2023-05-03T00:17:20.019Z,95684.00
2023-05-03T00:20:08.163Z,95690.09
2023-05-03T00:22:54.149Z,95677.81
2023-05-03T00:25:39.916Z,95689.81
2023-05-03T00:28:26.229Z,95681.19
2023-05-03T00:31:12.088Z,95665.59
2023-05-03T00:33:57.686Z,95675.47
2023-05-03T00:36:43.513Z,95675.19
2023-05-03T00:39:33.351Z,95683.19
2023-05-03T00:42:19.664Z,95681.28
2023-05-03T00:45:06.831Z,95685.81
2023-05-03T00:47:53.000Z,95680.38
2023-05-03T00:50:39.151Z,95678.63
2023-05-03T00:53:25.379Z,95685.06
2023-05-03T00:56:12.167Z,95674.38
2023-05-03T00:58:58.439Z,95660.84
2023-05-03T01:01:46.023Z,95671.84
2023-05-03T01:04:32.402Z,95656.84
2023-05-03T01:07:43.431Z,95667.44
2023-05-03T01:10:41.917Z,95656.75
2023-05-03T01:13:37.826Z,95652.44
2023-05-03T01:16:50.092Z,95649.72
2023-05-03T01:19:59.146Z,95656.16
2023-05-03T01:22:51.094Z,95648.59
2023-05-03T01:25:37.014Z,95634.75
2023-05-03T01:28:23.043Z,95635.97
2023-05-03T01:31:09.200Z,95625.16
2023-05-03T01:34:04.849Z,95629.16
2023-05-03T01:36:51.111Z,95622.75
2023-05-03T01:39:46.915Z,95626.59
2023-05-03T01:42:36.865Z,95618.66
2023-05-03T01:45:23.310Z,95620.25
2023-05-03T01:48:16.949Z,95613.84
2023-05-03T01:51:02.721Z,95613.84
2023-05-03T01:53:48.404Z,95617.69
2023-05-03T01:56:36.341Z,95610.66
2023-05-03T01:59:22.424Z,95619.50
2023-05-03T02:02:08.492Z,95612.63
2023-05-03T02:04:54.467Z,95616.34
2023-05-03T02:07:41.073Z,95614.59
2023-05-03T02:10:27.290Z,95612.84
2023-05-03T02:13:18.912Z,95631.53
2023-05-03T02:16:06.846Z,95632.97
2023-05-03T02:18:53.880Z,95630.13
2023-05-03T02:21:39.708Z,95628.84
2023-05-03T02:24:26.116Z,95642.75
2023-05-03T02:27:12.211Z,95639.56
2023-05-03T02:29:58.365Z,95626.16
2023-05-03T02:32:45.406Z,95623.78
2023-05-03T02:35:31.179Z,95620.91
2023-05-03T02:38:17.229Z,95629.19
2023-05-03T02:41:03.297Z,95628.41
2023-05-03T02:43:49.915Z,95637.19
2023-05-03T02:46:36.077Z,95625.84
2023-05-03T02:49:22.126Z,95608.16
2023-05-03T02:52:08.398Z,95614.06
2023-05-03T02:54:54.809Z,95621.44
2023-05-03T02:57:42.392Z,95624.94
2023-05-03T03:00:29.886Z,95626.06
2023-05-03T03:03:16.072Z,95626.75
2023-05-03T03:06:02.304Z,95627.06
2023-05-03T03:08:48.307Z,95622.25
2023-05-03T03:11:34.103Z,95630.88
2023-05-03T03:14:19.987Z,95621.16
2023-05-03T03:17:09.176Z,95630.22
2023-05-03T03:19:55.326Z,95639.03
2023-05-03T03:22:41.484Z,95639.84
2023-05-03T03:25:27.525Z,95631.22
2023-05-03T03:28:15.749Z,95640.63
2023-05-03T03:31:01.556Z,95636.81
2023-05-03T03:33:47.442Z,95639.84
2023-05-03T03:36:38.103Z,95637.91
2023-05-03T03:39:24.402Z,95636.31
2023-05-03T03:42:11.099Z,95634.72
2023-05-03T03:44:57.125Z,95636.47
2023-05-03T03:47:43.359Z,95624.16
2023-05-03T03:50:29.648Z,95631.31
2023-05-03T03:53:15.837Z,95618.25
2023-05-03T03:56:02.423Z,95630.41
2023-05-03T03:58:49.599Z,95627.50
2023-05-03T04:01:35.508Z,95646.34
2023-05-03T04:04:22.466Z,95644.75
2023-05-03T04:07:09.817Z,95651.78
2023-05-03T04:09:56.697Z,95656.41
2023-05-03T04:12:43.623Z,95660.06
2023-05-03T04:15:31.587Z,95654.66
2023-05-03T04:18:19.389Z,95663.28
2023-05-03T04:21:05.893Z,95669.63
2023-05-03T04:23:52.239Z,95659.75
2023-05-03T04:26:40.558Z,95661.34
2023-05-03T04:29:33.449Z,95659.44
2023-05-03T04:32:23.624Z,95662.66
2023-05-03T04:35:13.558Z,95663.75
2023-05-03T04:38:04.440Z,95651.44
2023-05-03T04:40:51.698Z,95659.94
2023-05-03T04:43:37.440Z,95656.56
2023-05-03T04:46:23.602Z,95653.34
2023-05-03T04:49:11.131Z,95646.34
2023-05-03T04:51:57.665Z,95658.19
2023-05-03T04:54:45.802Z,95648.59
2023-05-03T04:57:34.785Z,95660.25
2023-05-03T05:00:23.133Z,95643.50
2023-05-03T05:03:16.503Z,95662.66
2023-05-03T05:06:03.492Z,95663.28
2023-05-03T05:08:50.968Z,95666.47
2023-05-03T05:11:36.914Z,95670.63
2023-05-03T05:14:22.855Z,95664.56
2023-05-03T05:17:09.232Z,95673.66
2023-05-03T05:19:55.349Z,95667.91
2023-05-03T05:22:42.033Z,95666.78
2023-05-03T05:25:28.002Z,95661.34
2023-05-03T05:28:15.504Z,95671.56
2023-05-03T05:31:02.738Z,95676.19
2023-05-03T05:33:50.718Z,95680.84
2023-05-03T05:36:37.468Z,95670.91
2023-05-03T05:39:24.086Z,95677.13
2023-05-03T05:42:10.075Z,95680.47
2023-05-03T05:44:57.377Z,95677.91
2023-05-03T05:47:44.338Z,95674.06
2023-05-03T05:50:31.611Z,95682.50
2023-05-03T05:53:22.402Z,95678.66
2023-05-03T05:56:14.920Z,95688.34
2023-05-03T05:59:01.248Z,95687.06
2023-05-03T06:01:47.599Z,95694.41
2023-05-03T06:04:36.350Z,95682.69
2023-05-03T06:07:22.243Z,95685.06
2023-05-03T06:10:08.352Z,95693.53
2023-05-03T06:12:55.654Z,95687.06
2023-05-03T06:15:43.958Z,95689.47
2023-05-03T06:18:29.990Z,95688.03
2023-05-03T06:21:16.183Z,95692.94
2023-05-03T06:24:02.186Z,95684.47
2023-05-03T06:26:48.635Z,95680.75
2023-05-03T06:29:35.528Z,95673.72
2023-05-03T06:32:22.141Z,95685.16
2023-05-03T06:35:09.522Z,95682.38
2023-05-03T06:37:57.323Z,95669.38
2023-05-03T06:41:02.540Z,95684.25
2023-05-03T06:43:48.557Z,95674.94
2023-05-03T06:46:34.542Z,95679.19
2023-05-03T06:49:20.396Z,95684.00
2023-05-03T06:52:09.482Z,95689.53
2023-05-03T06:54:57.809Z,95681.75
2023-05-03T06:57:44.049Z,95687.19
2023-05-03T07:00:30.548Z,95677.75
2023-05-03T07:03:16.650Z,95694.41
2023-05-03T07:06:02.676Z,95700.03
2023-05-03T07:08:48.369Z,95696.88
2023-05-03T07:11:37.217Z,95705.22
2023-05-03T07:14:23.419Z,95703.47
2023-05-03T07:17:09.865Z,95706.41
2023-05-03T07:19:56.805Z,95706.13
2023-05-03T07:22:42.908Z,95710.63
2023-05-03T07:25:28.732Z,95714.31
2023-05-03T07:28:14.828Z,95711.16
2023-05-03T07:31:00.835Z,95712.63
2023-05-03T07:33:47.055Z,95706.38
2023-05-03T07:36:33.221Z,95713.41
2023-05-03T07:39:19.358Z,95703.19
2023-05-03T07:42:04.934Z,95712.72
2023-05-03T07:44:51.095Z,95717.53
2023-05-03T07:47:39.460Z,95710.47
2023-05-03T07:50:25.556Z,95722.47
2023-05-03T07:53:12.545Z,95715.53
2023-05-03T07:55:58.508Z,95711.84
2023-05-03T07:58:46.725Z,95722.03
2023-05-03T08:01:35.873Z,95720.22
2023-05-03T08:04:22.315Z,95723.41
2023-05-03T08:07:08.717Z,95724.34
2023-05-03T08:09:54.701Z,95723.69
2023-05-03T08:12:41.018Z,95725.75
2023-05-03T08:15:28.009Z,95736.97
2023-05-03T08:18:13.936Z,95733.47
2023-05-03T08:20:59.892Z,95725.94
2023-05-03T08:23:46.519Z,95721.16
2023-05-03T08:26:33.339Z,95720.59
2023-05-03T08:29:18.950Z,95735.97
2023-05-03T08:32:05.330Z,95734.69
2023-05-03T08:34:52.305Z,95736.00
2023-05-03T08:37:42.229Z,95731.88
2023-05-03T08:40:29.328Z,95733.19
2023-05-03T08:43:16.067Z,95732.19
2023-05-03T08:46:01.928Z,95727.56
2023-05-03T08:48:55.176Z,95729.88
2023-05-03T08:51:47.289Z,95733.38
2023-05-03T08:54:33.285Z,95726.59
2023-05-03T08:57:19.768Z,95727.34
2023-05-03T09:00:10.485Z,95721.06
2023-05-03T09:02:56.698Z,95716.31
2023-05-03T09:05:44.423Z,95716.44
2023-05-03T09:08:31.169Z,95721.72
2023-05-03T09:11:31.243Z,95717.91
2023-05-03T09:14:18.722Z,95726.13
2023-05-03T09:17:18.170Z,95714.34
2023-05-03T09:20:04.572Z,95718.22
2023-05-03T09:22:52.561Z,95710.16
2023-05-03T09:25:42.494Z,95708.00
2023-05-03T09:28:28.371Z,95713.72
2023-05-03T09:31:14.162Z,95705.88
2023-05-03T09:34:00.304Z,95704.03
2023-05-03T09:36:47.262Z,95705.78
2023-05-03T09:39:33.697Z,95698.94
2023-05-03T09:42:19.469Z,95703.09
2023-05-03T09:45:08.018Z,95697.63
2023-05-03T09:47:55.893Z,95692.41
2023-05-03T09:50:43.206Z,95692.63
2023-05-03T09:53:29.936Z,95695.13
2023-05-03T09:56:16.478Z,95683.06
2023-05-03T09:59:03.787Z,95694.09
2023-05-03T10:01:51.394Z,95677.38
2023-05-03T10:05:00.298Z,95671.69
2023-05-03T10:07:46.315Z,95676.34
2023-05-03T10:10:32.918Z,95668.47
2023-05-03T10:13:18.806Z,95665.59
2023-05-03T10:16:17.934Z,95664.31
2023-05-03T10:19:10.537Z,95659.47
2023-05-03T10:22:12.567Z,95660.59
2023-05-03T10:25:02.032Z,95657.84
2023-05-03T10:27:48.677Z,95644.84
2023-05-03T10:30:38.927Z,95640.22
2023-05-03T10:33:35.553Z,95635.75
2023-05-03T10:36:22.850Z,95631.72
2023-05-03T10:39:14.720Z,95640.03
2023-05-03T10:42:03.517Z,95640.28
2023-05-03T10:44:49.538Z,95637.22
2023-05-03T10:47:35.883Z,95629.78
2023-05-03T10:50:25.797Z,95627.41
2023-05-03T10:53:33.875Z,95615.56
2023-05-03T10:56:19.724Z,95619.94
2023-05-03T10:59:05.486Z,95620.34
2023-05-03T11:01:53.172Z,95621.63
2023-05-03T11:04:45.424Z,95617.53
2023-05-03T11:07:31.901Z,95619.16
2023-05-03T11:10:18.733Z,95615.59
2023-05-03T11:13:04.665Z,95615.75
2023-05-03T11:15:50.729Z,95607.97
2023-05-03T11:18:36.850Z,95598.16
2023-05-03T11:21:23.474Z,95594.25
2023-05-03T11:24:09.994Z,95599.47
2023-05-03T11:26:56.080Z,95600.16
2023-05-03T11:29:42.307Z,95592.31
2023-05-03T11:32:29.901Z,95591.50
2023-05-03T11:35:17.918Z,95588.63
2023-05-03T11:38:04.355Z,95590.13
2023-05-03T11:40:50.406Z,95593.19
2023-05-03T11:43:52.871Z,95591.72
2023-05-03T11:46:45.218Z,95584.63
2023-05-03T11:49:31.243Z,95581.63
2023-05-03T11:52:22.083Z,95583.22
2023-05-03T11:55:09.539Z,95582.22
2023-05-03T11:57:57.066Z,95578.22
2023-05-03T12:00:47.028Z,95579.28
2023-05-03T12:03:33.892Z,95577.94
2023-05-03T12:06:21.718Z,95583.59
2023-05-03T12:09:15.689Z,95579.84
2023-05-03T12:12:07.097Z,95576.53
2023-05-03T12:15:00.093Z,95575.06
2023-05-03T12:17:49.481Z,95560.41
2023-05-03T12:23:27.042Z,95560.25
2023-05-03T12:26:14.485Z,95561.72
2023-05-03T12:29:02.223Z,95557.72
2023-05-03T12:31:49.418Z,95554.41
2023-05-03T12:34:36.754Z,95539.25
2023-05-03T12:37:27.168Z,95542.41
2023-05-03T12:40:32.279Z,95541.78
2023-05-03T12:43:19.993Z,95522.31
2023-05-03T12:46:32.121Z,95538.28
2023-05-03T12:49:14.912Z,95531.91
2023-05-03T12:52:32.445Z,95519.38
2023-05-03T12:55:11.272Z,95517.09
2023-05-03T12:58:36.893Z,95514.44
2023-05-03T13:01:47.868Z,95499.28
2023-05-03T13:07:01.566Z,95497.34
2023-05-03T13:12:37.853Z,95492.75
2023-05-03T13:15:27.439Z,95492.50
2023-05-03T13:18:14.458Z,95487.28
2023-05-03T13:21:01.523Z,95487.34
2023-05-03T13:23:48.231Z,95477.34
2023-05-03T13:26:35.624Z,95483.19
2023-05-03T13:29:22.413Z,95478.63
2023-05-03T13:32:09.603Z,95483.19
2023-05-03T13:34:55.722Z,95480.47
2023-05-03T13:37:41.589Z,95470.78
2023-05-03T13:40:27.989Z,95461.38
2023-05-03T13:43:14.135Z,95461.22
2023-05-03T13:46:03.058Z,95464.72
2023-05-03T13:48:50.389Z,95462.97
2023-05-03T13:51:37.167Z,95443.84
2023-05-03T13:54:22.982Z,95442.81
2023-05-03T13:57:09.255Z,95443.28
2023-05-03T13:59:57.481Z,95456.47
2023-05-03T14:02:43.340Z,95452.59
2023-05-03T14:05:29.514Z,95449.59
2023-05-03T14:08:16.736Z,95448.69
2023-05-03T14:11:04.141Z,95448.44
2023-05-03T14:13:56.978Z,95448.81
2023-05-03T14:16:44.038Z,95460.97
2023-05-03T14:19:30.073Z,95456.75
2023-05-03T14:22:16.097Z,95451.66
2023-05-03T14:25:02.638Z,95449.00
2023-05-03T14:27:48.770Z,95440.00
2023-05-03T14:30:34.708Z,95446.72
2023-05-03T14:33:20.964Z,95438.50
2023-05-03T14:36:09.390Z,95445.31
2023-05-03T14:38:55.126Z,95446.88
2023-05-03T14:41:43.094Z,95444.50
2023-05-03T14:44:28.963Z,95444.06
2023-05-03T14:47:15.204Z,95428.16
2023-05-03T14:52:47.416Z,95441.91
2023-05-03T14:55:33.787Z,95441.91
2023-05-03T14:58:19.707Z,95453.44
2023-05-03T15:01:05.629Z,95462.66
2023-05-03T15:03:59.884Z,95474.88
2023-05-03T15:06:46.152Z,95473.72
2023-05-03T15:09:35.198Z,95479.88
2023-05-03T15:12:20.998Z,95490.31
2023-05-03T15:15:10.314Z,95499.97
2023-05-03T15:17:56.895Z,95495.59
2023-05-03T15:20:42.582Z,95504.69
2023-05-03T15:23:28.304Z,95519.22
2023-05-03T15:26:14.321Z,95518.31
2023-05-03T15:29:00.530Z,95527.16
2023-05-03T15:31:46.571Z,95531.72
2023-05-03T15:34:33.104Z,95534.69
2023-05-03T15:37:18.905Z,95541.97
2023-05-03T15:40:06.054Z,95541.59
2023-05-03T15:42:52.522Z,95549.97
2023-05-03T15:45:38.470Z,95552.38
2023-05-03T15:48:24.544Z,95554.81
2023-05-03T15:51:10.791Z,95543.56
2023-05-03T15:53:56.559Z,95549.66
2023-05-03T15:56:42.764Z,95556.66
2023-05-03T15:59:28.708Z,95555.75
2023-05-03T16:02:14.522Z,95557.88
2023-05-03T16:05:00.416Z,95559.22
2023-05-03T16:08:55.185Z,95569.59
2023-05-03T16:11:40.885Z,95559.19
2023-05-03T16:14:26.715Z,95553.91
2023-05-03T16:26:29.724Z,95562.03
2023-05-03T16:29:18.670Z,95553.28
2023-05-03T16:32:06.346Z,95555.56
2023-05-03T16:34:53.507Z,95570.38
2023-05-03T16:37:40.890Z,95564.72
2023-05-03T16:40:27.207Z,95562.25
2023-05-03T16:43:15.625Z,95577.88
2023-05-03T16:46:02.355Z,95573.66
2023-05-03T16:48:48.264Z,95579.03
2023-05-03T16:51:34.361Z,95591.25
2023-05-03T16:54:20.366Z,95591.84
2023-05-03T16:57:06.153Z,95597.91
2023-05-03T16:59:52.608Z,95587.47
2023-05-03T17:02:39.855Z,95591.91
2023-05-03T17:05:32.788Z,95582.28
2023-05-03T17:08:18.952Z,95592.41
2023-05-03T17:11:09.860Z,95594.94
2023-05-03T17:13:55.654Z,95585.75
2023-05-03T17:16:41.567Z,95590.75
2023-05-03T17:19:28.160Z,95581.31
2023-05-03T17:22:14.439Z,95598.28
2023-05-03T17:25:00.640Z,95593.38
2023-05-03T17:27:46.917Z,95606.22
2023-05-03T17:30:33.246Z,95603.03
2023-05-03T17:33:19.259Z,95599.16
2023-05-03T17:36:07.980Z,95603.28
2023-05-03T17:38:53.809Z,95607.59
2023-05-03T17:41:39.989Z,95607.59
2023-05-03T17:44:27.191Z,95616.59
2023-05-03T17:47:13.139Z,95622.38
2023-05-03T17:49:59.017Z,95623.19
2023-05-03T17:52:45.354Z,95621.44
2023-05-03T17:55:34.996Z,95625.41
2023-05-03T17:58:21.093Z,95624.63
2023-05-03T18:01:09.204Z,95625.41
2023-05-03T18:03:55.147Z,95619.16
2023-05-03T18:06:41.395Z,95621.56
2023-05-03T18:09:27.186Z,95634.09
2023-05-03T18:12:14.301Z,95640.34
2023-05-03T18:15:00.370Z,95633.28
2023-05-03T18:17:46.697Z,95632.81
2023-05-03T18:20:32.524Z,95633.28
2023-05-03T18:23:19.497Z,95631.22
2023-05-03T18:26:10.089Z,95637.34
2023-05-03T18:28:57.019Z,95635.97
2023-05-03T18:31:42.922Z,95637.34
2023-05-03T18:34:29.700Z,95651.88
2023-05-03T18:37:15.882Z,95648.47
2023-05-03T18:40:02.154Z,95641.31
2023-05-03T18:42:48.224Z,95642.00
2023-05-03T18:45:37.743Z,95663.22
2023-05-03T18:48:23.655Z,95640.53
2023-05-03T18:51:09.802Z,95664.47
2023-05-03T18:53:56.026Z,95660.03
2023-05-03T18:56:42.023Z,95669.00
2023-05-03T18:59:28.134Z,95665.94
2023-05-03T19:02:14.599Z,95669.44
2023-05-03T19:05:00.784Z,95671.38
2023-05-03T19:07:48.070Z,95674.25
2023-05-03T19:10:33.751Z,95673.09
2023-05-03T19:13:19.648Z,95669.13
2023-05-03T19:16:06.028Z,95675.50
2023-05-03T19:18:57.057Z,95675.50
2023-05-03T19:21:43.865Z,95663.66
2023-05-03T19:24:29.754Z,95665.59
2023-05-03T19:27:18.836Z,95663.66
2023-05-03T19:30:05.200Z,95669.25
2023-05-03T19:32:51.385Z,95659.13
2023-05-03T19:35:41.129Z,95672.53
2023-05-03T19:38:27.635Z,95678.69
2023-05-03T19:41:13.785Z,95667.31
2023-05-03T19:43:59.844Z,95670.03
2023-05-03T19:46:46.057Z,95667.31
2023-05-03T19:49:33.327Z,95670.72
2023-05-03T19:52:19.682Z,95669.00
2023-05-03T19:55:07.739Z,95670.47
2023-05-03T19:57:54.387Z,95680.47
2023-05-03T20:00:40.930Z,95679.31
2023-05-03T20:03:28.128Z,95680.91
2023-05-03T20:06:14.521Z,95671.72
2023-05-03T20:09:00.605Z,95680.59
2023-05-03T20:11:46.781Z,95679.00
2023-05-03T20:14:32.650Z,95678.53
2023-05-03T20:17:18.752Z,95684.44
2023-05-03T20:20:10.323Z,95681.38
2023-05-03T20:22:57.521Z,95684.44
2023-05-03T20:25:43.678Z,95682.72
2023-05-03T20:28:31.951Z,95681.13
2023-05-03T20:31:17.938Z,95680.69
2023-05-03T20:34:05.203Z,95688.06
2023-05-03T20:36:52.291Z,95679.63
2023-05-03T20:39:38.130Z,95671.53
2023-05-03T20:42:24.144Z,95672.66
2023-05-03T20:45:12.395Z,95669.00
2023-05-03T20:47:58.328Z,95677.88
2023-05-03T20:50:44.478Z,95673.75
2023-05-03T20:53:30.410Z,95667.09
2023-05-03T20:56:16.820Z,95670.56
2023-05-03T20:59:03.714Z,95672.69
2023-05-03T21:01:52.655Z,95680.59
2023-05-03T21:04:38.937Z,95675.34
2023-05-03T21:07:24.793Z,95670.56
2023-05-03T21:10:10.780Z,95667.38
2023-05-03T21:12:56.517Z,95661.94
2023-05-03T21:15:44.901Z,95666.94
2023-05-03T21:18:31.202Z,95672.00
2023-05-03T21:21:17.003Z,95673.50
2023-05-03T21:24:03.020Z,95672.56
2023-05-03T21:26:49.139Z,95672.56
2023-05-03T21:29:35.436Z,95656.88
2023-05-03T21:32:21.489Z,95668.72
2023-05-03T21:35:09.302Z,95662.94
2023-05-03T21:37:55.410Z,95662.59
2023-05-03T21:40:41.138Z,95671.69
2023-05-03T21:43:26.880Z,95656.09
2023-05-03T21:46:12.828Z,95661.41
2023-05-03T21:48:58.697Z,95662.06
2023-05-03T21:51:45.204Z,95669.56
2023-05-03T21:54:31.099Z,95662.06
2023-05-03T21:57:18.901Z,95673.22
2023-05-03T22:00:07.454Z,95674.00
2023-05-03T22:02:54.386Z,95672.56
2023-05-03T22:05:41.008Z,95664.84
2023-05-03T22:08:26.816Z,95667.59
2023-05-03T22:11:29.217Z,95662.47
2023-05-03T22:14:15.472Z,95662.59
2023-05-03T22:17:01.634Z,95670.56
2023-05-03T22:19:47.446Z,95673.28
2023-05-03T22:22:33.437Z,95668.16
2023-05-03T22:25:28.139Z,95669.75
2023-05-03T22:28:15.017Z,95664.22
2023-05-03T22:31:01.089Z,95659.19
2023-05-03T22:33:48.935Z,95650.13
2023-05-03T22:36:35.007Z,95659.88
2023-05-03T22:39:20.666Z,95662.47
2023-05-03T22:42:06.447Z,95658.47
2023-05-03T22:44:53.221Z,95654.84
2023-05-03T22:47:39.371Z,95640.03
2023-05-03T22:50:25.696Z,95645.00
2023-05-03T22:53:11.856Z,95646.78
2023-05-03T22:56:01.612Z,95647.44
2023-05-03T22:58:55.205Z,95640.44
2023-05-03T23:01:44.178Z,95636.09
2023-05-03T23:04:30.540Z,95621.75
2023-05-03T23:07:16.315Z,95628.13
2023-05-03T23:10:03.856Z,95636.75
2023-05-03T23:12:50.441Z,95625.94
2023-05-03T23:15:37.716Z,95640.53
2023-05-03T23:18:23.461Z,95621.69
2023-05-03T23:21:10.173Z,95621.38
2023-05-03T23:23:55.873Z,95616.59
2023-05-03T23:26:41.695Z,95626.53
2023-05-03T23:29:30.634Z,95611.50
2023-05-03T23:32:20.690Z,95621.59
2023-05-03T23:35:07.558Z,95619.88
2023-05-03T23:37:53.819Z,95617.94
2023-05-03T23:40:40.273Z,95625.31
2023-05-03T23:43:26.254Z,95615.88
2023-05-03T23:46:14.533Z,95610.50
2023-05-03T23:49:00.567Z,95608.56
2023-05-03T23:51:46.906Z,95604.59
2023-05-03T23:54:33.367Z,95602.81
2023-05-03T23:57:19.981Z,95607.78
